Time;durP1;ratioP1;P1;durP2;ratioP2;P2;SDS_P1;SDS_P2;PMS_P1;PMS_P2;Temp;Humidity;BMP_temperature;BMP_pressure;BME280_temperature;BME280_humidity;BME280_pressure;Samples;Min_cycle;Max_cycle;Signal;HPM_P1;HPM_P2
2022/07/25 00:01:09;;;;;;;11.95;8.98;;;;;;;25.70;53.83;98654.84;4837342;29;20061;-92
2022/07/25 00:03:37;;;;;;;12.55;9.35;;;;;;;25.50;54.46;98643.06;4836679;29;20168;-92
2022/07/25 00:06:04;;;;;;;10.65;8.75;;;;;;;25.43;54.51;98648.19;4835238;29;20153;-94
2022/07/25 00:08:30;;;;;;;10.68;9.13;;;;;;;25.42;54.58;98651.94;4835571;29;20496;-93
2022/07/25 00:10:56;;;;;;;11.13;8.70;;;;;;;25.32;54.70;98646.44;4841151;29;20056;-93
2022/07/25 00:13:22;;;;;;;10.93;8.52;;;;;;;25.32;55.33;98637.44;4845543;29;20046;-92
2022/07/25 00:15:50;;;;;;;12.75;8.80;;;;;;;25.45;55.33;98667.13;4841408;29;20042;-93
2022/07/25 00:18:16;;;;;;;14.23;9.80;;;;;;;25.32;54.84;98640.16;4849279;29;20046;-95
2022/07/25 00:20:42;;;;;;;11.40;8.95;;;;;;;25.38;54.66;98653.22;4848185;29;20045;-94
2022/07/25 00:23:08;;;;;;;12.30;8.50;;;;;;;25.40;54.63;98660.22;4847535;29;20079;-93
2022/07/25 00:25:34;;;;;;;10.27;8.52;;;;;;;25.18;55.18;98639.50;4845432;29;20047;-93
2022/07/25 00:28:00;;;;;;;11.43;9.15;;;;;;;25.10;55.50;98635.75;4846602;29;20038;-93
2022/07/25 00:30:26;;;;;;;13.80;8.98;;;;;;;24.94;55.82;98628.94;4850667;29;20649;-94
2022/07/25 00:32:54;;;;;;;13.30;9.13;;;;;;;24.91;56.18;98648.25;4849118;29;20047;-94
2022/07/25 00:35:20;;;;;;;12.95;9.27;;;;;;;24.83;56.12;98633.59;4846189;29;20046;-94
2022/07/25 00:37:46;;;;;;;12.68;8.75;;;;;;;24.86;56.16;98636.06;4849737;29;20058;-93
2022/07/25 00:40:12;;;;;;;11.10;8.98;;;;;;;24.74;56.67;98630.69;4843872;29;20054;-92
2022/07/25 00:42:42;;;;;;;13.10;9.23;;;;;;;24.78;57.69;98669.38;4846265;29;20118;-93
2022/07/25 00:45:09;;;;;;;11.60;9.00;;;;;;;24.81;57.87;98674.56;4842821;29;20047;-92
2022/07/25 00:47:35;;;;;;;11.63;9.43;;;;;;;24.60;57.85;98650.09;4842501;29;20053;-94
2022/07/25 00:50:04;;;;;;;12.88;9.43;;;;;;;24.48;57.53;98619.38;4847702;29;20049;-94
2022/07/25 00:52:30;;;;;;;13.07;8.95;;;;;;;24.63;57.51;98649.81;4847350;29;20046;-94
2022/07/25 00:54:56;;;;;;;12.13;9.05;;;;;;;24.72;57.43;98667.16;4851833;29;20092;-94
2022/07/25 00:57:22;;;;;;;12.45;9.55;;;;;;;24.63;57.09;98647.09;4840175;29;20043;-93
2022/07/25 00:59:48;;;;;;;12.32;9.38;;;;;;;24.69;57.01;98641.13;4847881;29;20366;-94
2022/07/25 01:02:17;;;;;;;13.15;9.10;;;;;;;24.54;57.38;98629.72;4846398;29;20516;-93
2022/07/25 01:04:43;;;;;;;;;;;;;;;24.73;57.27;98669.75;4845144;29;20050;-94
2022/07/25 01:07:13;;;;;;;13.00;8.93;;;;;;;24.55;57.52;98626.03;4855487;29;19928;-93
2022/07/25 01:09:39;;;;;;;10.52;8.70;;;;;;;24.62;57.50;98649.97;4848012;29;20049;-93
2022/07/25 01:12:06;;;;;;;17.02;10.50;;;;;;;24.37;57.96;98622.13;4847528;29;20046;-95
2022/07/25 01:14:33;;;;;;;12.68;9.88;;;;;;;24.49;57.91;98642.00;4850821;29;20073;-93
2022/07/25 01:16:59;;;;;;;11.88;9.27;;;;;;;24.50;58.11;98650.00;4844322;29;20049;-94
2022/07/25 01:19:24;;;;;;;14.45;9.30;;;;;;;24.48;57.96;98645.66;4847462;29;20058;-94
2022/07/25 01:21:54;;;;;;;11.20;9.27;;;;;;;24.28;58.20;98626.50;4846318;29;20054;-92
2022/07/25 01:24:20;;;;;;;13.82;9.32;;;;;;;24.22;59.10;98637.88;4846065;29;20103;-93
2022/07/25 01:26:46;;;;;;;13.65;9.13;;;;;;;24.12;59.14;98629.69;4842805;29;20043;-92
2022/07/25 01:29:13;;;;;;;13.30;9.68;;;;;;;24.05;59.12;98628.47;4846305;29;20057;-95
2022/07/25 01:31:39;;;;;;;14.35;9.45;;;;;;;24.09;59.65;98640.78;4843943;29;20102;-92
2022/07/25 01:34:05;;;;;;;14.93;9.80;;;;;;;24.00;59.79;98630.72;4846307;29;20074;-92
2022/07/25 01:36:32;;;;;;;13.88;9.85;;;;;;;23.97;59.73;98618.25;4841908;29;20046;-95
2022/07/25 01:39:00;;;;;;;14.43;10.48;;;;;;;23.95;59.74;98622.94;4847493;29;20046;-94
2022/07/25 01:41:26;;;;;;;13.77;9.82;;;;;;;24.14;59.65;98644.00;4851538;29;20064;-95
2022/07/25 01:43:52;;;;;;;12.73;10.27;;;;;;;23.87;59.90;98616.44;4842914;29;20110;-94
2022/07/25 01:46:18;;;;;;;13.50;9.93;;;;;;;23.81;60.08;98612.38;4843347;29;20078;-92
2022/07/25 01:48:44;;;;;;;12.10;9.90;;;;;;;23.81;60.22;98611.53;4842703;29;20080;-93
2022/07/25 01:51:10;;;;;;;18.80;10.05;;;;;;;23.96;60.25;98651.84;4841777;29;20046;-93
2022/07/25 01:53:36;;;;;;;12.10;10.13;;;;;;;23.81;60.63;98639.53;4838841;29;20519;-92
2022/07/25 01:56:03;;;;;;;11.90;9.93;;;;;;;23.84;61.38;98662.88;4838813;29;20091;-94
2022/07/25 01:58:29;;;;;;;12.20;9.50;;;;;;;23.72;61.62;98643.84;4841709;29;20066;-92
2022/07/25 02:00:55;;;;;;;17.40;9.85;;;;;;;23.73;61.92;98653.75;4839296;29;20049;-93
2022/07/25 02:03:29;;;;;;;14.90;10.15;;;;;;;23.60;62.14;98636.75;4841542;29;20047;-92
2022/07/25 02:05:58;;;;;;;14.70;9.40;;;;;;;23.54;62.22;98629.09;4841159;29;20046;-93
2022/07/25 02:08:24;;;;;;;13.38;9.73;;;;;;;23.43;62.71;98621.84;4840937;29;20077;-92
2022/07/25 02:10:51;;;;;;;11.70;10.20;;;;;;;23.37;62.91;98620.50;4838426;29;20563;-94
2022/07/25 02:13:19;;;;;;;13.18;9.75;;;;;;;23.32;62.77;98614.59;4841145;29;20043;-92
2022/07/25 02:15:45;;;;;;;13.53;9.50;;;;;;;23.37;63.33;98622.34;4839990;29;20109;-93
2022/07/25 02:18:11;;;;;;;12.65;10.27;;;;;;;23.41;63.18;98628.41;4839809;29;20061;-93
2022/07/25 02:20:40;;;;;;;14.10;10.85;;;;;;;23.31;63.14;98628.28;4839926;29;20042;-94
2022/07/25 02:23:08;;;;;;;16.42;10.13;;;;;;;23.33;63.13;98637.16;4839795;29;20046;-94
2022/07/25 02:25:34;;;;;;;12.45;10.00;;;;;;;23.52;63.42;98655.50;4837233;29;20110;-92
2022/07/25 02:28:01;;;;;;;13.20;10.10;;;;;;;23.36;63.33;98645.91;4841341;29;20893;-92
2022/07/25 02:30:28;;;;;;;19.13;11.13;;;;;;;23.31;63.18;98639.13;4844357;29;20050;-92
2022/07/25 02:32:54;;;;;;;14.52;10.18;;;;;;;23.16;63.51;98619.53;4843842;29;20079;-92
2022/07/25 02:35:21;;;;;;;15.00;10.43;;;;;;;23.15;63.54;98609.69;4840479;29;20042;-92
2022/07/25 02:37:47;;;;;;;14.50;10.13;;;;;;;23.08;63.89;98617.47;4839264;29;20053;-94
2022/07/25 02:40:13;;;;;;;15.30;10.27;;;;;;;23.02;63.99;98615.25;4843640;29;20058;-94
2022/07/25 02:42:39;;;;;;;14.57;10.60;;;;;;;23.11;64.14;98632.63;4842154;29;20050;-94
2022/07/25 02:45:07;;;;;;;13.35;10.80;;;;;;;23.04;64.51;98620.53;4843083;29;20042;-94
2022/07/25 02:47:34;;;;;;;13.05;10.27;;;;;;;23.12;64.06;98628.94;4842903;29;20053;-94
2022/07/25 02:50:00;;;;;;;14.38;11.75;;;;;;;22.98;64.56;98616.44;4847293;29;20114;-93
2022/07/25 02:52:29;;;;;;;14.18;10.35;;;;;;;22.95;64.34;98613.97;4840275;29;20065;-94
2022/07/25 02:54:55;;;;;;;14.57;10.95;;;;;;;22.84;64.96;98606.72;4841199;29;20082;-95
2022/07/25 02:57:21;;;;;;;14.85;11.40;;;;;;;22.88;65.10;98618.16;4841716;29;20118;-92
2022/07/25 02:59:47;;;;;;;14.95;10.48;;;;;;;22.80;64.96;98604.38;4843190;29;20054;-93
2022/07/25 03:02:13;;;;;;;13.27;11.10;;;;;;;22.91;65.11;98623.34;4842220;29;20054;-95
2022/07/25 03:04:43;;;;;;;15.15;10.77;;;;;;;22.70;65.52;98598.81;4842067;29;20050;-92
2022/07/25 03:07:09;;;;;;;17.60;10.55;;;;;;;22.82;65.67;98632.22;4838361;29;20057;-92
2022/07/25 03:09:38;;;;;;;11.40;10.02;;;;;;;22.68;65.55;98607.06;4843806;29;20105;-93
2022/07/25 03:12:04;;;;;;;17.08;10.75;;;;;;;22.83;65.85;98642.94;4846701;29;20450;-93
2022/07/25 03:14:33;;;;;;;15.43;11.10;;;;;;;22.65;66.12;98612.72;4839062;29;20054;-93
2022/07/25 03:16:59;;;;;;;14.55;10.60;;;;;;;22.86;65.98;98648.13;4840256;29;20046;-92
2022/07/25 03:19:25;;;;;;;17.50;10.88;;;;;;;22.65;65.80;98620.00;4840863;29;20092;-93
2022/07/25 03:21:53;;;;;;;15.05;11.55;;;;;;;22.73;66.30;98639.25;4841753;29;20066;-92
2022/07/25 03:24:19;;;;;;;14.88;10.20;;;;;;;22.52;66.68;98620.09;4839036;29;20046;-93
2022/07/25 03:26:45;;;;;;;13.13;10.45;;;;;;;22.53;66.95;98625.41;4838852;29;20095;-93
2022/07/25 03:29:11;;;;;;;14.75;11.27;;;;;;;22.50;67.05;98631.06;4841407;29;20078;-94
2022/07/25 03:31:38;;;;;;;17.67;11.50;;;;;;;22.33;67.35;98602.56;4847233;29;20428;-93
2022/07/25 03:34:05;;;;;;;15.77;11.30;;;;;;;22.36;67.31;98606.91;4841528;29;20054;-93
2022/07/25 03:36:31;;;;;;;16.60;11.07;;;;;;;22.33;67.51;98616.13;4842940;29;20045;-92
2022/07/25 03:38:59;;;;;;;14.23;10.90;;;;;;;22.25;67.87;98612.28;4848015;29;20052;-92
2022/07/25 03:41:26;;;;;;;15.63;10.85;;;;;;;22.21;68.19;98619.75;4844444;29;20055;-92
2022/07/25 03:43:55;;;;;;;16.00;11.05;;;;;;;22.20;68.60;98623.44;4843220;29;20042;-93
2022/07/25 03:46:23;;;;;;;14.38;11.20;;;;;;;22.11;68.79;98624.16;4842317;29;20576;-91
2022/07/25 03:48:49;;;;;;;14.45;11.60;;;;;;;22.08;69.15;98610.88;4843448;29;20109;-92
2022/07/25 03:51:15;;;;;;;15.88;11.38;;;;;;;22.15;69.44;98633.78;4843576;29;20065;-93
2022/07/25 03:56:40;;;;;;;16.35;11.40;;;;;;;22.09;69.20;98628.81;5100039;27;20389;-96
2022/07/25 03:59:06;;;;;;;16.67;11.68;;;;;;;22.17;69.26;98634.53;5098211;28;20048;-94
2022/07/25 04:01:33;;;;;;;15.48;10.85;;;;;;;22.06;69.67;98629.94;5099551;28;20055;-95
2022/07/25 04:04:00;;;;;;;14.63;11.57;;;;;;;22.19;69.90;98666.91;5099887;28;20041;-93
2022/07/25 04:06:26;;;;;;;16.33;11.95;;;;;;;22.04;69.92;98629.19;5099476;28;20044;-93
2022/07/25 04:08:53;;;;;;;18.23;12.15;;;;;;;22.04;69.66;98631.03;5100427;28;20514;-93
2022/07/25 04:11:20;;;;;;;14.23;11.70;;;;;;;22.19;70.21;98661.50;5100945;28;20036;-93
2022/07/25 04:13:47;;;;;;;16.80;12.00;;;;;;;22.05;70.08;98633.59;5101128;28;20040;-92
2022/07/25 04:16:15;;;;;;;15.73;12.10;;;;;;;22.07;70.09;98637.06;5101379;28;20045;-94
2022/07/25 04:18:41;;;;;;;17.95;11.77;;;;;;;22.13;69.94;98654.69;5100905;28;20070;-93
2022/07/25 04:21:08;;;;;;;13.30;11.77;;;;;;;22.09;70.17;98642.38;5099812;28;20044;-93
2022/07/25 04:23:35;;;;;;;16.52;11.93;;;;;;;22.21;69.69;98649.56;5101130;28;20052;-93
2022/07/25 04:26:02;;;;;;;15.98;12.10;;;;;;;22.30;70.01;98662.41;5101349;28;20036;-94
2022/07/25 04:28:28;;;;;;;16.02;11.82;;;;;;;22.19;69.95;98645.25;5101151;28;20036;-95
2022/07/25 04:30:57;;;;;;;18.00;12.38;;;;;;;22.36;70.12;98674.63;5100098;28;20041;-94
2022/07/25 04:33:23;;;;;;;15.27;11.25;;;;;;;22.24;70.39;98648.50;5100231;28;20043;-93
2022/07/25 04:35:50;;;;;;;14.55;10.82;;;;;;;22.29;70.49;98651.69;5099181;28;20120;-93
2022/07/25 04:38:17;;;;;;;15.05;12.48;;;;;;;22.45;70.34;98675.78;5099113;28;20040;-95
2022/07/25 04:40:44;;;;;;;14.73;11.63;;;;;;;22.32;70.55;98655.03;5098083;28;20112;-93
2022/07/25 04:43:13;;;;;;;17.38;11.70;;;;;;;22.32;70.33;98646.91;5099448;28;20045;-93
2022/07/25 04:45:39;;;;;;;16.38;11.88;;;;;;;22.34;70.79;98649.50;5098097;28;20047;-94
2022/07/25 04:48:06;;;;;;;18.23;12.50;;;;;;;22.48;71.01;98661.97;5098665;28;20469;-93
2022/07/25 04:50:32;;;;;;;16.15;11.55;;;;;;;22.66;70.76;98682.22;5096865;28;20044;-94
2022/07/25 04:52:58;;;;;;;16.48;11.65;;;;;;;22.68;71.02;98674.81;5096966;28;20039;-93
2022/07/25 04:55:24;;;;;;;17.17;12.32;;;;;;;22.61;70.33;98649.19;5098883;28;20044;-93
2022/07/25 04:57:50;;;;;;;13.25;11.40;;;;;;;22.77;70.21;98667.84;5097981;28;20051;-94
2022/07/25 05:00:16;;;;;;;14.18;11.65;;;;;;;22.71;69.89;98643.91;5097638;28;20048;-94
2022/07/25 05:02:42;;;;;;;17.42;12.82;;;;;;;22.81;69.96;98652.16;5095536;28;20044;-93
2022/07/25 05:05:10;;;;;;;19.77;12.77;;;;;;;22.89;69.43;98655.16;5089902;28;20035;-92
2022/07/25 05:07:36;;;;;;;17.67;12.82;;;;;;;22.94;69.10;98652.91;5081159;28;20044;-92
2022/07/25 05:10:03;;;;;;;19.63;12.57;;;;;;;23.16;68.83;98668.34;5081489;28;20110;-94
2022/07/25 05:12:29;;;;;;;15.27;11.43;;;;;;;23.44;66.92;98645.28;5083787;28;20098;-93
2022/07/25 05:14:54;;;;;;;17.08;11.77;;;;;;;23.95;65.12;98646.53;5082913;28;20036;-93
2022/07/25 05:17:22;;;;;;;22.25;12.25;;;;;;;24.56;63.48;98678.53;5084982;28;20064;-93
2022/07/25 05:19:48;;;;;;;13.55;11.50;;;;;;;24.86;62.04;98655.97;5084904;28;20047;-94
2022/07/25 05:22:15;;;;;;;15.52;11.65;;;;;;;25.19;61.00;98664.84;5084345;28;20048;-93
2022/07/25 05:24:41;;;;;;;13.30;11.23;;;;;;;25.37;61.07;98649.63;5083599;28;20063;-93
2022/07/25 05:27:07;;;;;;;16.15;11.57;;;;;;;25.69;59.28;98677.66;5078991;28;20075;-94
2022/07/25 05:29:33;;;;;;;13.43;11.55;;;;;;;25.89;57.93;98670.41;5076295;28;20071;-92
2022/07/25 05:31:59;;;;;;;12.80;11.00;;;;;;;26.03;57.07;98653.66;5078020;28;20142;-93
2022/07/25 05:34:25;;;;;;;14.95;11.27;;;;;;;26.17;56.41;98638.72;5082678;28;20041;-95
2022/07/25 05:36:50;;;;;;;12.77;11.13;;;;;;;26.40;56.21;98663.84;5080077;28;21369;-93
2022/07/25 05:39:18;;;;;;;15.02;11.93;;;;;;;26.56;56.04;98674.19;5076621;28;20127;-94
2022/07/25 05:41:43;;;;;;;16.70;11.98;;;;;;;26.52;56.24;98650.91;5075427;28;20040;-94
2022/07/25 05:44:09;;;;;;;15.10;11.48;;;;;;;26.76;55.01;98661.38;5076598;28;20037;-94
2022/07/25 05:46:35;;;;;;;13.77;10.88;;;;;;;26.83;55.13;98663.38;5075519;28;20028;-92
2022/07/25 05:49:01;;;;;;;15.65;11.65;;;;;;;26.80;54.49;98649.16;5074763;28;20086;-93
2022/07/25 05:51:27;;;;;;;15.07;11.93;;;;;;;26.90;54.20;98638.22;5078473;28;20049;-93
2022/07/25 05:53:53;;;;;;;19.02;11.45;;;;;;;26.96;54.44;98643.94;5081632;28;20070;-93
2022/07/25 05:56:20;;;;;;;13.68;11.63;;;;;;;27.14;53.60;98665.84;5078360;28;20136;-93
2022/07/25 05:58:46;;;;;;;14.73;11.45;;;;;;;27.12;53.87;98653.38;5075226;28;20044;-93
2022/07/25 06:01:13;;;;;;;14.93;12.13;;;;;;;27.05;53.58;98650.38;5077032;28;20071;-92
2022/07/25 06:03:39;;;;;;;15.45;11.70;;;;;;;27.21;53.10;98652.47;5077673;28;20044;-92
2022/07/25 06:06:07;;;;;;;17.30;11.82;;;;;;;26.84;54.17;98640.53;5078708;28;20436;-94
2022/07/25 06:08:33;;;;;;;15.03;11.17;;;;;;;26.94;54.35;98647.84;5080935;28;20052;-94
2022/07/25 06:11:03;;;;;;;19.65;12.20;;;;;;;27.12;53.56;98653.38;5078043;28;20650;-93
2022/07/25 06:13:31;;;;;;;14.93;11.38;;;;;;;27.20;53.70;98659.81;5075988;28;20045;-94
2022/07/25 06:15:57;;;;;;;19.20;12.23;;;;;;;27.12;53.78;98646.03;5073095;28;20840;-94
2022/07/25 06:18:24;;;;;;;18.02;12.00;;;;;;;27.34;53.09;98663.06;5071891;28;20040;-96
2022/07/25 06:20:50;;;;;;;15.65;11.80;;;;;;;27.00;54.40;98652.69;5075086;28;20044;-96
2022/07/25 06:23:16;;;;;;;15.57;11.60;;;;;;;27.20;53.81;98657.06;5071440;28;20067;-93
2022/07/25 06:25:42;;;;;;;18.17;11.90;;;;;;;27.38;52.83;98657.16;5072107;28;20051;-91
2022/07/25 06:28:09;;;;;;;17.55;11.27;;;;;;;27.53;52.73;98660.25;5074651;28;20122;-94
2022/07/25 06:30:36;;;;;;;15.90;11.35;;;;;;;27.69;52.35;98654.09;5074809;28;20040;-93
2022/07/25 06:33:02;;;;;;;14.53;12.27;;;;;;;27.85;51.50;98648.88;5075416;28;20040;-95
2022/07/25 06:35:28;;;;;;;14.55;11.68;;;;;;;27.89;51.84;98652.16;5074848;28;20103;-92
2022/07/25 06:37:54;;;;;;;16.15;11.43;;;;;;;27.92;51.63;98648.25;5064393;28;20040;-93
2022/07/25 06:40:20;;;;;;;19.90;11.65;;;;;;;28.03;51.49;98651.59;5075105;28;20063;-94
2022/07/25 06:42:46;;;;;;;14.85;11.63;;;;;;;28.06;51.19;98647.69;5075596;28;20492;-94
2022/07/25 06:45:13;;;;;;;16.73;11.68;;;;;;;28.19;50.88;98652.78;5074221;28;20044;-95
2022/07/25 06:47:41;;;;;;;19.92;12.15;;;;;;;28.29;50.92;98645.34;5073668;28;20430;-94
2022/07/25 06:50:08;;;;;;;;;;;;;;;28.30;51.32;98646.22;5075955;28;20067;-95
2022/07/25 06:52:34;;;;;;;16.48;12.15;;;;;;;28.36;50.38;98642.84;5074773;28;19954;-93
2022/07/25 06:55:00;;;;;;;16.80;11.95;;;;;;;28.46;49.76;98647.22;5073317;28;20511;-92
2022/07/25 06:57:26;;;;;;;16.25;11.32;;;;;;;28.62;49.68;98640.19;5074789;28;20040;-95
2022/07/25 06:59:51;;;;;;;15.85;11.75;;;;;;;28.48;49.24;98633.41;5075807;28;20101;-94
2022/07/25 07:02:17;;;;;;;15.88;11.95;;;;;;;28.39;50.02;98632.47;5074405;28;20056;-95
2022/07/25 07:04:44;;;;;;;13.27;11.02;;;;;;;28.45;50.36;98630.94;5073713;28;20120;-92
2022/07/25 07:07:10;;;;;;;17.25;12.55;;;;;;;28.34;50.21;98631.22;5073369;28;20048;-95
2022/07/25 07:09:36;;;;;;;17.10;12.40;;;;;;;28.26;50.34;98624.66;5073443;28;20067;-92
2022/07/25 07:12:02;;;;;;;17.67;12.27;;;;;;;28.26;50.30;98624.66;5074027;28;20060;-94
2022/07/25 07:14:28;;;;;;;18.17;12.02;;;;;;;28.40;50.85;98638.78;5075775;28;20068;-94
2022/07/25 07:16:54;;;;;;;14.93;12.30;;;;;;;28.75;49.70;98618.72;5075511;28;20071;-95
2022/07/25 07:19:20;;;;;;;16.35;11.98;;;;;;;29.04;48.58;98625.75;5074057;28;20131;-94
2022/07/25 07:21:50;;;;;;;14.15;11.90;;;;;;;29.05;48.82;98627.47;5068016;28;20084;-94
2022/07/25 07:24:16;;;;;;;16.98;12.20;;;;;;;29.21;48.65;98622.13;5072090;28;20048;-95
2022/07/25 07:26:41;;;;;;;19.20;12.50;;;;;;;29.21;48.37;98622.13;5075749;28;20050;-95
2022/07/25 07:29:07;;;;;;;16.92;12.07;;;;;;;29.29;48.34;98624.00;5076281;28;20060;-95
2022/07/25 07:31:34;;;;;;;14.73;11.50;;;;;;;29.51;47.94;98627.19;5075552;28;20071;-94
2022/07/25 07:34:00;;;;;;;16.02;13.07;;;;;;;29.59;47.44;98628.06;5072181;28;20029;-92
2022/07/25 07:36:26;;;;;;;15.50;11.80;;;;;;;29.82;47.63;98624.72;5071062;28;20059;-96
2022/07/25 07:38:53;;;;;;;16.25;12.05;;;;;;;29.92;46.75;98614.47;5073711;28;20037;-93
2022/07/25 07:41:19;;;;;;;16.38;11.43;;;;;;;29.94;46.87;98609.69;5075887;28;20040;-93
2022/07/25 07:43:45;;;;;;;14.40;12.02;;;;;;;30.23;46.41;98622.03;5075457;28;20048;-94
2022/07/25 07:46:11;;;;;;;16.92;11.60;;;;;;;30.33;46.38;98617.28;5074253;28;20551;-94
2022/07/25 07:48:37;;;;;;;14.95;11.52;;;;;;;30.47;46.40;98608.38;5073926;28;20037;-94
2022/07/25 07:51:03;;;;;;;15.60;12.00;;;;;;;30.57;45.78;98618.31;5073189;28;20036;-94
2022/07/25 07:56:39;;;;;;;17.05;12.30;;;;;;;30.40;46.14;98603.72;5184830;27;20382;-96
2022/07/25 07:59:05;;;;;;;16.75;11.45;;;;;;;30.62;46.00;98599.41;5144855;27;20047;-95
2022/07/25 08:01:31;;;;;;;12.70;11.13;;;;;;;30.86;44.97;98610.41;5140836;27;20043;-94
2022/07/25 08:03:57;;;;;;;15.23;11.45;;;;;;;30.83;45.25;98607.09;5135730;28;20047;-95
2022/07/25 08:06:23;;;;;;;15.30;11.25;;;;;;;31.00;44.77;98602.47;5136016;27;20100;-95
2022/07/25 08:08:49;;;;;;;17.23;11.18;;;;;;;31.09;44.17;98593.16;5137136;28;20039;-96
2022/07/25 08:11:15;;;;;;;15.13;10.70;;;;;;;31.41;43.68;98613.31;5138613;27;20048;-96
2022/07/25 08:13:42;;;;;;;13.60;10.75;;;;;;;31.55;43.69;98611.72;5137701;28;20035;-96
2022/07/25 08:16:10;;;;;;;16.07;11.17;;;;;;;31.59;43.39;98616.66;5137602;27;20054;-94
2022/07/25 08:18:36;;;;;;;16.38;11.32;;;;;;;31.65;42.61;98587.63;5137494;28;20046;-94
2022/07/25 08:21:04;;;;;;;16.90;10.80;;;;;;;31.85;43.04;98599.84;5139600;27;20040;-96
2022/07/25 08:23:31;;;;;;;;;;;;;;;32.13;42.89;98624.09;5136897;27;20040;-95
2022/07/25 08:25:58;;;;;;;14.05;10.55;;;;;;;31.95;41.25;98602.38;5134725;27;19944;-95
2022/07/25 08:28:27;;;;;;;14.73;11.05;;;;;;;31.46;42.15;98625.50;5133229;27;20047;-95
2022/07/25 08:30:55;;;;;;;14.70;11.32;;;;;;;31.10;42.87;98597.63;5135174;27;20067;-95
2022/07/25 08:33:25;;;;;;;12.88;10.30;;;;;;;31.28;43.57;98597.38;5136380;27;20039;-95
2022/07/25 08:35:53;;;;;;;14.68;10.63;;;;;;;31.46;42.61;98605.41;5130956;27;20038;-94
2022/07/25 08:38:19;;;;;;;;;;;;;;;31.95;41.30;98615.28;5134638;27;20561;-95
2022/07/25 08:40:45;;;;;;;15.05;10.50;;;;;;;32.05;40.26;98597.50;5132165;27;19920;-93
2022/07/25 08:43:12;;;;;;;14.77;10.02;;;;;;;32.20;40.84;98591.22;5130284;27;20056;-96
2022/07/25 08:45:43;;;;;;;12.40;10.60;;;;;;;32.34;40.24;98580.25;5132214;27;20500;-92
2022/07/25 08:48:10;;;;;;;20.45;11.30;;;;;;;32.58;39.67;98600.38;5132553;27;20455;-93
2022/07/25 08:50:37;;;;;;;14.25;10.45;;;;;;;32.70;39.81;98600.75;5133614;27;20051;-96
2022/07/25 08:53:04;;;;;;;12.80;10.13;;;;;;;32.92;39.03;98593.47;5129219;27;20061;-96
2022/07/25 08:55:30;;;;;;;12.30;10.50;;;;;;;33.14;38.41;98597.22;5126542;28;20035;-93
2022/07/25 08:57:56;;;;;;;12.13;10.63;;;;;;;33.10;38.78;98602.25;5126277;27;20702;-93
2022/07/25 09:00:23;;;;;;;14.32;10.63;;;;;;;33.19;38.81;98599.41;5129629;28;21366;-94
2022/07/25 09:02:51;;;;;;;12.40;11.00;;;;;;;33.16;38.73;98595.16;5128582;27;20050;-95
2022/07/25 09:05:19;;;;;;;;;;;;;;;33.13;38.16;98596.34;5128151;28;20042;-93
2022/07/25 09:07:45;;;;;;;14.95;11.57;;;;;;;33.08;38.25;98587.81;5115760;28;20063;-92
2022/07/25 09:10:12;;;;;;;14.32;11.20;;;;;;;33.12;38.58;98591.06;5115556;27;20036;-96
2022/07/25 09:12:52;;;;;;;11.38;10.18;;;;;;;33.11;37.54;98584.66;5113161;28;20041;-95
2022/07/25 09:15:26;;;;;;;13.13;10.93;;;;;;;33.03;37.97;98589.38;5113352;27;20105;-95
2022/07/25 09:17:53;;;;;;;13.07;10.65;;;;;;;33.40;37.30;98580.19;5110899;28;20039;-94
2022/07/25 09:20:38;;;;;;;12.60;10.77;;;;;;;33.72;36.10;98575.28;5111850;28;20044;-96
2022/07/25 09:23:09;;;;;;;16.57;10.87;;;;;;;33.73;35.85;98574.25;5117684;28;20127;-95
2022/07/25 09:26:10;;;;;;;13.85;11.13;;;;;;;33.76;35.60;98580.22;5115617;28;20165;-95
2022/07/25 09:29:00;;;;;;;14.40;11.80;;;;;;;33.95;34.74;98573.19;5112213;28;20381;-94
2022/07/25 09:32:17;;;;;;;;;;;;;;;;;;;;;
2022/07/25 09:35:36;;;;;;;;;;;;;;;;;;;;;
2022/07/25 09:38:28;;;;;;;15.65;11.88;;;;;;;33.01;33.64;98578.56;5116587;28;20048;-94
2022/07/25 09:41:03;;;;;;;13.60;11.40;;;;;;;33.23;34.70;98570.44;5115840;28;20063;-92
2022/07/25 09:47:37;;;;;;;12.40;11.10;;;;;;;33.64;34.61;98562.47;5115682;28;20276;-94
2022/07/25 09:50:46;;;;;;;13.23;10.63;;;;;;;33.61;33.48;98540.78;5082622;28;20111;-95
2022/07/25 09:53:14;;;;;;;14.00;11.15;;;;;;;33.70;33.43;98531.38;5114925;28;20039;-93
2022/07/25 09:56:21;;;;;;;12.38;10.52;;;;;;;34.14;33.31;98546.91;5114519;28;20061;-96
2022/07/25 09:58:51;;;;;;;12.88;10.80;;;;;;;34.47;30.83;98543.56;5113658;28;20028;-92
2022/07/25 10:02:01;;;;;;;13.05;10.80;;;;;;;34.73;30.50;98547.59;5115187;28;20140;-95
2022/07/25 10:04:58;;;;;;;13.77;10.43;;;;;;;34.74;29.97;98539.13;5069537;28;20071;-95
2022/07/25 10:07:40;;;;;;;13.50;10.65;;;;;;;34.58;30.08;98539.38;5112925;28;20055;-95
2022/07/25 10:10:07;;;;;;;16.38;10.55;;;;;;;34.55;29.03;98534.28;5114656;28;20054;-93
2022/07/25 10:12:33;;;;;;;12.95;10.00;;;;;;;34.79;29.43;98530.22;5115528;27;20238;-95
2022/07/25 10:15:06;;;;;;;11.35;9.85;;;;;;;34.68;29.17;98530.75;5114048;28;20028;-93
2022/07/25 10:17:33;;;;;;;13.48;10.23;;;;;;;34.72;29.55;98532.06;5112822;28;20123;-94
2022/07/25 10:20:00;;;;;;;10.95;9.35;;;;;;;34.12;27.11;98517.78;5112965;27;20042;-91
2022/07/25 10:22:36;;;;;;;11.80;9.38;;;;;;;34.34;27.44;98530.50;5112532;28;20031;-94
2022/07/25 10:25:11;;;;;;;13.48;9.50;;;;;;;34.54;27.77;98533.41;5114043;28;20050;-94
2022/07/25 10:27:42;;;;;;;10.70;9.18;;;;;;;34.78;28.94;98517.44;5112094;28;20492;-94
2022/07/25 10:30:17;;;;;;;11.50;10.30;;;;;;;34.55;28.18;98512.19;5114694;28;20092;-91
2022/07/25 10:32:49;;;;;;;12.50;9.93;;;;;;;34.85;26.32;98523.88;5114241;28;20184;-94
2022/07/25 10:35:16;;;;;;;13.68;9.38;;;;;;;35.10;26.45;98517.84;5112259;28;20047;-91
2022/07/25 10:37:44;;;;;;;13.57;9.43;;;;;;;35.05;25.26;98512.94;5113196;28;20139;-94
2022/07/25 10:40:24;;;;;;;11.63;9.13;;;;;;;35.14;25.90;98497.06;5113617;28;20051;-94
2022/07/25 10:42:56;;;;;;;10.60;8.95;;;;;;;35.12;25.18;98491.69;5116259;28;20038;-95
2022/07/25 10:45:25;;;;;;;10.68;8.73;;;;;;;34.97;26.57;98486.31;5118455;28;20523;-95
2022/07/25 10:47:53;;;;;;;13.35;9.35;;;;;;;35.09;25.91;98492.13;5117734;28;20044;-96
2022/07/25 10:50:22;;;;;;;12.90;9.50;;;;;;;35.31;26.56;98487.34;5115292;28;20040;-93
2022/07/25 10:52:58;;;;;;;11.60;9.02;;;;;;;35.49;25.83;98480.38;5113463;28;20548;-95
2022/07/25 10:55:27;;;;;;;12.82;9.80;;;;;;;35.42;25.30;98490.56;5112497;28;20475;-93
2022/07/25 10:57:59;;;;;;;12.13;9.00;;;;;;;35.42;24.64;98477.59;5111471;28;20051;-95
2022/07/25 11:00:26;;;;;;;12.00;9.02;;;;;;;35.49;24.14;98481.22;5113641;28;20243;-95
2022/07/25 11:02:54;;;;;;;10.70;8.90;;;;;;;34.60;24.82;98481.19;5118322;28;20103;-95
2022/07/25 11:05:21;;;;;;;11.93;9.00;;;;;;;34.44;24.64;98465.78;5115442;28;20062;-95
2022/07/25 11:07:51;;;;;;;10.38;8.23;;;;;;;34.43;23.60;98477.91;5118748;28;20113;-95
2022/07/25 11:10:26;;;;;;;10.82;9.02;;;;;;;34.28;23.55;98466.97;5116004;28;20043;-96
2022/07/25 11:12:52;;;;;;;13.15;8.40;;;;;;;34.13;23.06;98445.81;5118243;28;20070;-94
2022/07/25 11:15:22;;;;;;;11.93;8.75;;;;;;;34.72;24.49;98446.44;5115269;28;20036;-96
2022/07/25 11:17:50;;;;;;;10.60;8.63;;;;;;;34.97;22.96;98447.63;5115801;28;20031;-93
2022/07/25 11:20:18;;;;;;;10.70;9.13;;;;;;;35.44;24.20;98455.25;5115202;28;20048;-93
2022/07/25 11:22:51;;;;;;;10.13;8.85;;;;;;;35.58;24.23;98452.28;5115325;28;20051;-95
2022/07/25 11:25:20;;;;;;;10.88;8.77;;;;;;;35.42;23.50;98435.28;5113604;28;20091;-95
2022/07/25 11:27:54;;;;;;;10.23;9.10;;;;;;;35.09;24.09;98431.31;5113888;28;20044;-93
2022/07/25 11:30:20;;;;;;;12.57;9.05;;;;;;;35.53;24.04;98446.56;5114753;28;20427;-95
2022/07/25 11:32:49;;;;;;;12.13;9.38;;;;;;;35.72;23.86;98438.50;5114245;28;20132;-96
2022/07/25 11:35:18;;;;;;;12.55;9.13;;;;;;;35.87;23.70;98425.34;5115811;28;20069;-95
2022/07/25 11:37:47;;;;;;;12.68;9.20;;;;;;;35.53;23.66;98435.50;5116451;28;20035;-95
2022/07/25 11:40:15;;;;;;;11.30;9.35;;;;;;;35.12;24.46;98413.47;5116354;28;20880;-96